Time;durP1;ratioP1;P1;durP2;ratioP2;P2;SDS_P1;SDS_P2;PMS_P1;PMS_P2;Temp;Humidity;BMP_temperature;BMP_pressure;BME280_temperature;BME280_humidity;BME280_pressure;Samples;Min_cycle;Max_cycle;Signal;HPM_P1;HPM_P2
2023/07/24 00:00:14;;;;;;;4.60;2.43;;;;;17.80;95434.00;;;;5072493;28;20202;-57
2023/07/24 00:02:42;;;;;;;2.83;1.67;;;;;17.70;95435.00;;;;5072472;28;20600;-57
2023/07/24 00:05:10;;;;;;;1.40;1.30;;;;;17.60;95438.00;;;;5072380;28;20205;-56
2023/07/24 00:07:38;;;;;;;1.67;1.57;;;;;17.60;95432.00;;;;5072371;28;20230;-56
2023/07/24 00:10:06;;;;;;;0.77;0.77;;;;;17.70;95432.00;;;;5075543;28;20192;-57
2023/07/24 00:12:34;;;;;;;1.23;1.23;;;;;17.70;95437.00;;;;5075957;28;20211;-57
2023/07/24 00:15:02;;;;;;;1.33;1.23;;;;;17.40;95426.00;;;;5076011;28;20198;-57
2023/07/24 00:17:30;;;;;;;1.13;1.13;;;;;17.20;95430.00;;;;5075900;28;20199;-57
2023/07/24 00:19:57;;;;;;;2.57;1.97;;;;;17.30;95433.00;;;;5075926;28;20206;-56
2023/07/24 00:22:25;;;;;;;1.60;1.50;;;;;17.30;95428.00;;;;5075972;28;20226;-57
2023/07/24 00:24:52;;;;;;;2.10;1.90;;;;;17.40;95429.00;;;;5075750;28;20226;-56
2023/07/24 00:27:20;;;;;;;1.30;1.20;;;;;17.50;95418.00;;;;5076535;28;20191;-57
2023/07/24 00:29:47;;;;;;;2.07;1.97;;;;;17.50;95414.00;;;;5075759;28;20199;-57
2023/07/24 00:32:16;;;;;;;1.70;1.60;;;;;17.40;95410.00;;;;5075678;28;20225;-57
2023/07/24 00:34:43;;;;;;;3.40;1.50;;;;;17.40;95406.00;;;;5075606;28;20275;-57
2023/07/24 00:37:10;;;;;;;1.30;1.23;;;;;17.40;95404.00;;;;5057670;28;20202;-57
2023/07/24 00:39:38;;;;;;;1.43;1.33;;;;;17.40;95400.00;;;;5075862;28;20184;-56
2023/07/24 00:42:06;;;;;;;1.37;1.23;;;;;17.40;95400.00;;;;5076114;28;20223;-56
2023/07/24 00:44:33;;;;;;;3.50;2.07;;;;;17.40;95394.00;;;;5075704;28;20283;-57
2023/07/24 00:47:01;;;;;;;1.13;1.13;;;;;17.40;95394.00;;;;5075878;28;20199;-56
2023/07/24 00:49:30;;;;;;;1.80;1.70;;;;;17.30;95392.00;;;;5075421;28;20218;-56
2023/07/24 00:51:57;;;;;;;0.97;0.97;;;;;17.20;95385.00;;;;5075598;28;20570;-57
2023/07/24 00:54:25;;;;;;;1.70;1.37;;;;;17.30;95380.00;;;;5075824;28;20192;-56
2023/07/24 00:56:52;;;;;;;1.87;1.70;;;;;17.30;95387.00;;;;5076018;28;20194;-56
2023/07/24 00:59:22;;;;;;;1.57;1.47;;;;;17.10;95385.00;;;;5075219;28;20196;-56
2023/07/24 01:01:49;;;;;;;1.43;1.33;;;;;17.10;95378.00;;;;5075307;28;20219;-56
2023/07/24 01:04:17;;;;;;;1.43;1.33;;;;;17.00;95378.00;;;;5075376;28;20609;-56
2023/07/24 01:06:46;;;;;;;1.53;1.43;;;;;17.00;95372.00;;;;5075075;28;20199;-56
2023/07/24 01:09:13;;;;;;;1.23;1.23;;;;;17.00;95373.00;;;;5075033;28;20196;-56
2023/07/24 01:11:45;;;;;;;0.93;0.93;;;;;16.90;95364.00;;;;5075406;28;20551;-57
2023/07/24 01:14:19;;;;;;;1.13;1.13;;;;;16.90;95349.00;;;;5074986;28;20187;-56
2023/07/24 01:16:49;;;;;;;1.60;1.47;;;;;16.90;95353.00;;;;5075109;28;20183;-56
2023/07/24 01:19:31;;;;;;;1.63;1.47;;;;;16.80;95361.00;;;;5075057;28;20184;-56
2023/07/24 01:22:10;;;;;;;1.60;1.50;;;;;16.90;95364.00;;;;5074018;28;20220;-56
2023/07/24 01:24:46;;;;;;;1.77;1.67;;;;;16.90;95345.00;;;;5075005;28;20198;-57
2023/07/24 01:27:22;;;;;;;1.00;1.00;;;;;16.80;95343.00;;;;5074913;28;20195;-56
2023/07/24 01:29:49;;;;;;;6.80;2.20;;;;;16.80;95345.00;;;;5074630;28;20233;-57
2023/07/24 01:32:17;;;;;;;0.93;0.93;;;;;16.80;95344.00;;;;5074456;28;20218;-56
2023/07/24 01:34:44;;;;;;;1.60;1.50;;;;;16.80;95345.00;;;;5074810;28;20206;-56
2023/07/24 01:37:13;;;;;;;0.93;0.93;;;;;16.70;95343.00;;;;5074752;28;20195;-57
2023/07/24 01:39:42;;;;;;;0.90;0.90;;;;;16.80;95345.00;;;;5074604;28;20191;-57
2023/07/24 01:42:10;;;;;;;1.77;1.67;;;;;16.90;95338.00;;;;5074502;28;20629;-56
2023/07/24 01:44:39;;;;;;;1.20;1.03;;;;;16.80;95345.00;;;;5056392;28;20585;-56
2023/07/24 01:47:06;;;;;;;1.87;1.77;;;;;16.80;95328.00;;;;5074231;28;20601;-57
2023/07/24 01:49:34;;;;;;;1.37;1.30;;;;;16.70;95333.00;;;;5074184;28;20195;-56
2023/07/24 01:52:01;;;;;;;1.17;1.17;;;;;16.70;95334.00;;;;5074240;28;20207;-56
2023/07/24 01:54:29;;;;;;;1.37;1.30;;;;;16.60;95337.00;;;;5074390;28;20217;-56
2023/07/24 01:56:56;;;;;;;1.57;1.47;;;;;16.40;95339.00;;;;5056150;28;20650;-56
2023/07/24 01:59:23;;;;;;;1.30;1.30;;;;;16.50;95331.00;;;;5074232;28;20198;-57
2023/07/24 02:01:52;;;;;;;1.57;1.47;;;;;16.50;95328.00;;;;5073823;28;20289;-56
2023/07/24 02:04:22;;;;;;;1.47;1.37;;;;;16.60;95324.00;;;;5073996;28;20218;-56
2023/07/24 02:06:49;;;;;;;0.90;0.90;;;;;16.70;95314.00;;;;5073900;28;20222;-56
2023/07/24 02:09:19;;;;;;;1.53;1.43;;;;;16.70;95321.00;;;;5074871;28;20277;-57
2023/07/24 02:11:47;;;;;;;0.90;0.90;;;;;16.50;95316.00;;;;5073718;28;20685;-57
2023/07/24 02:14:16;;;;;;;1.83;1.73;;;;;16.40;95320.00;;;;5073745;28;20187;-56
2023/07/24 02:16:45;;;;;;;2.83;2.23;;;;;16.40;95314.00;;;;5055835;28;20192;-57
2023/07/24 02:19:14;;;;;;;0.87;0.87;;;;;16.40;95309.00;;;;5073852;28;20200;-57
2023/07/24 02:21:41;;;;;;;1.70;1.60;;;;;16.50;95319.00;;;;5073410;28;20207;-56
2023/07/24 02:24:09;;;;;;;1.57;1.47;;;;;16.50;95320.00;;;;5055657;28;20337;-57
2023/07/24 02:26:36;;;;;;;0.60;0.60;;;;;16.50;95310.00;;;;5073501;28;20245;-57
2023/07/24 02:29:04;;;;;;;1.60;1.50;;;;;16.40;95299.00;;;;5073659;28;20196;-61
2023/07/24 02:31:31;;;;;;;0.83;0.83;;;;;16.40;95296.00;;;;5055400;28;20693;-55
2023/07/24 02:33:59;;;;;;;1.60;1.27;;;;;16.30;95304.00;;;;5073972;28;20176;-56
2023/07/24 02:36:27;;;;;;;1.07;1.07;;;;;16.30;95292.00;;;;5073380;28;20274;-57
2023/07/24 02:38:55;;;;;;;1.27;1.27;;;;;16.30;95286.00;;;;5073539;28;20192;-57
2023/07/24 02:41:22;;;;;;;2.07;1.97;;;;;16.10;95295.00;;;;5073363;28;20223;-57
2023/07/24 02:43:49;;;;;;;1.97;1.87;;;;;16.10;95310.00;;;;5073213;28;20698;-57
2023/07/24 02:46:17;;;;;;;1.20;1.10;;;;;16.10;95306.00;;;;5073409;28;20245;-56
2023/07/24 02:48:44;;;;;;;1.20;1.20;;;;;16.10;95306.00;;;;5073169;28;20195;-56
2023/07/24 02:51:11;;;;;;;0.80;0.80;;;;;16.10;95294.00;;;;5073068;28;20212;-56
2023/07/24 02:53:40;;;;;;;1.50;1.43;;;;;16.20;95289.00;;;;5073382;28;20556;-57
2023/07/24 02:56:07;;;;;;;1.20;1.20;;;;;16.20;95271.00;;;;5073076;28;20197;-56
2023/07/24 02:58:35;;;;;;;1.23;1.23;;;;;16.10;95272.00;;;;5073105;28;20262;-56
2023/07/24 03:01:06;;;;;;;0.87;0.83;;;;;16.10;95260.00;;;;5073391;28;20191;-56
2023/07/24 03:03:34;;;;;;;1.80;1.70;;;;;16.10;95261.00;;;;5072965;28;20219;-56
2023/07/24 03:06:01;;;;;;;2.00;1.80;;;;;16.00;95263.00;;;;5072959;28;20187;-57
2023/07/24 03:08:28;;;;;;;1.33;1.33;;;;;16.00;95266.00;;;;5072999;28;20293;-57
2023/07/24 03:10:57;;;;;;;0.90;0.90;;;;;15.80;95281.00;;;;5072884;28;20191;-57
2023/07/24 03:13:25;;;;;;;2.80;2.23;;;;;15.80;95278.00;;;;5072878;28;20187;-57
2023/07/24 03:15:56;;;;;;;0.83;0.83;;;;;15.90;95294.00;;;;5055432;28;20199;-57
2023/07/24 03:18:24;;;;;;;1.10;1.10;;;;;15.70;95290.00;;;;5054914;28;20655;-57
2023/07/24 03:20:52;;;;;;;1.30;1.23;;;;;15.70;95277.00;;;;5072990;28;20192;-57
2023/07/24 03:23:20;;;;;;;3.07;1.40;;;;;15.70;95278.00;;;;5072986;28;20227;-57
2023/07/24 03:25:47;;;;;;;1.20;1.13;;;;;15.80;95288.00;;;;5072774;28;20187;-57
2023/07/24 03:28:16;;;;;;;1.93;1.73;;;;;15.90;95286.00;;;;5072754;28;20195;-57
2023/07/24 03:30:43;;;;;;;1.63;1.53;;;;;15.90;95268.00;;;;5072632;28;20191;-57
2023/07/24 03:33:12;;;;;;;0.60;0.60;;;;;15.80;95277.00;;;;5072691;28;20241;-56
2023/07/24 03:35:39;;;;;;;1.33;1.23;;;;;15.80;95279.00;;;;5072877;28;20188;-57
2023/07/24 03:38:07;;;;;;;1.53;1.43;;;;;15.90;95282.00;;;;5072601;28;20202;-57
2023/07/24 03:40:34;;;;;;;1.20;1.20;;;;;15.90;95290.00;;;;5072641;28;20191;-57
2023/07/24 03:43:01;;;;;;;1.43;1.37;;;;;15.90;95289.00;;;;5072485;28;20221;-57
2023/07/24 03:45:30;;;;;;;1.30;1.30;;;;;15.90;95292.00;;;;5076603;28;20199;-57
2023/07/24 03:47:57;;;;;;;2.60;2.40;;;;;15.80;95282.00;;;;5077527;28;20218;-57
2023/07/24 03:50:25;;;;;;;3.10;2.13;;;;;15.90;95285.00;;;;5076686;28;20199;-57
2023/07/24 03:52:52;;;;;;;2.10;2.00;;;;;16.00;95287.00;;;;5077064;28;20681;-57
2023/07/24 03:55:20;;;;;;;1.77;1.67;;;;;16.00;95293.00;;;;5076887;28;20196;-57
2023/07/24 03:57:47;;;;;;;1.67;1.57;;;;;16.00;95292.00;;;;5076542;28;20274;-57
2023/07/24 04:00:15;;;;;;;3.80;1.67;;;;;16.10;95282.00;;;;5077006;28;20673;-57
2023/07/24 04:02:45;;;;;;;1.63;1.53;;;;;16.20;95267.00;;;;5076114;28;20356;-57
2023/07/24 04:05:12;;;;;;;0.70;0.70;;;;;16.30;95277.00;;;;5076659;28;20191;-57
2023/07/24 04:07:39;;;;;;;1.67;1.57;;;;;16.30;95268.00;;;;5076307;28;20195;-57
2023/07/24 04:10:08;;;;;;;1.80;1.70;;;;;16.30;95263.00;;;;5076082;28;20198;-58
2023/07/24 04:12:35;;;;;;;1.23;1.23;;;;;16.30;95259.00;;;;5076044;28;20231;-57
2023/07/24 04:15:03;;;;;;;1.13;1.13;;;;;16.30;95255.00;;;;5076256;28;20192;-57
2023/07/24 04:17:30;;;;;;;1.00;1.00;;;;;16.40;95259.00;;;;5076191;28;20544;-57
2023/07/24 04:20:00;;;;;;;1.33;1.30;;;;;16.40;95254.00;;;;5075886;28;20245;-57
2023/07/24 04:22:27;;;;;;;1.87;1.77;;;;;16.40;95248.00;;;;5075951;28;20227;-57
2023/07/24 04:24:54;;;;;;;1.53;1.47;;;;;16.40;95241.00;;;;5076559;28;20249;-57
2023/07/24 04:27:22;;;;;;;1.57;1.47;;;;;16.40;95240.00;;;;5076255;28;20195;-56
2023/07/24 04:29:49;;;;;;;2.27;2.10;;;;;16.50;95232.00;;;;5075783;28;20226;-57
2023/07/24 04:32:16;;;;;;;1.27;1.17;;;;;16.40;95237.00;;;;5075620;28;20231;-56
2023/07/24 04:34:44;;;;;;;1.40;1.27;;;;;16.50;95234.00;;;;5075714;28;20188;-57
2023/07/24 04:37:12;;;;;;;1.90;1.73;;;;;16.60;95228.00;;;;5075638;28;20199;-56
2023/07/24 04:39:40;;;;;;;0.73;0.73;;;;;16.60;95226.00;;;;5076067;28;20591;-59
2023/07/24 04:42:07;;;;;;;1.17;1.17;;;;;16.50;95230.00;;;;5075582;28;20207;-56
2023/07/24 04:44:35;;;;;;;1.37;1.37;;;;;16.40;95230.00;;;;5075349;28;20219;-57
2023/07/24 04:47:02;;;;;;;1.67;1.57;;;;;16.60;95223.00;;;;5075553;28;20192;-57
2023/07/24 04:49:30;;;;;;;1.53;1.43;;;;;16.70;95212.00;;;;5075963;28;20203;-57
2023/07/24 04:51:57;;;;;;;0.70;0.70;;;;;16.60;95216.00;;;;5075212;28;20628;-57
2023/07/24 04:54:26;;;;;;;2.17;1.97;;;;;16.50;95212.00;;;;5074984;28;20666;-57
2023/07/24 04:56:53;;;;;;;1.47;1.37;;;;;16.50;95214.00;;;;5074539;28;20196;-57
2023/07/24 04:59:21;;;;;;;0.93;0.87;;;;;16.50;95216.00;;;;5057389;28;20705;-57
2023/07/24 05:01:48;;;;;;;1.63;1.53;;;;;16.40;95218.00;;;;5075032;28;20674;-58
2023/07/24 05:04:15;;;;;;;1.47;1.37;;;;;16.50;95216.00;;;;5075260;28;20231;-57
2023/07/24 05:06:43;;;;;;;2.83;2.63;;;;;16.50;95213.00;;;;5056940;28;20199;-57
2023/07/24 05:09:10;;;;;;;1.10;1.10;;;;;16.60;95218.00;;;;5075155;28;20605;-58
2023/07/24 05:11:39;;;;;;;1.60;1.50;;;;;16.70;95212.00;;;;5074835;28;20211;-57
2023/07/24 05:14:06;;;;;;;1.30;1.20;;;;;16.60;95224.00;;;;5075428;28;20196;-57
2023/07/24 05:16:34;;;;;;;1.97;1.53;;;;;16.50;95232.00;;;;5074983;28;20203;-57
2023/07/24 05:19:01;;;;;;;3.17;1.07;;;;;16.30;95237.00;;;;5074747;28;20200;-57
2023/07/24 05:21:28;;;;;;;1.13;1.10;;;;;16.30;95245.00;;;;5074652;28;20211;-57
2023/07/24 05:23:56;;;;;;;1.03;1.03;;;;;16.40;95244.00;;;;5074563;28;20211;-57
2023/07/24 05:26:23;;;;;;;1.83;1.73;;;;;16.50;95240.00;;;;5074653;28;20229;-57
2023/07/24 05:28:52;;;;;;;3.47;2.90;;;;;16.60;95249.00;;;;5074861;28;20203;-57
2023/07/24 05:31:20;;;;;;;2.13;2.03;;;;;16.70;95257.00;;;;5074572;28;20262;-57
2023/07/24 05:33:47;;;;;;;2.00;1.90;;;;;16.70;95258.00;;;;5074918;28;20172;-57
2023/07/24 05:36:14;;;;;;;3.90;2.47;;;;;16.80;95269.00;;;;5074350;28;20192;-57
2023/07/24 05:38:42;;;;;;;1.37;1.33;;;;;16.80;95275.00;;;;5074374;28;20191;-57
2023/07/24 05:41:09;;;;;;;5.83;3.23;;;;;16.70;95274.00;;;;5074165;28;20217;-57
2023/07/24 05:43:37;;;;;;;1.00;1.00;;;;;16.70;95270.00;;;;5070095;28;20215;-56
2023/07/24 05:46:06;;;;;;;1.77;1.67;;;;;16.80;95271.00;;;;5081149;28;20215;-57
2023/07/24 05:48:33;;;;;;;1.73;1.63;;;;;17.00;95270.00;;;;5077751;28;20195;-57
2023/07/24 05:51:00;;;;;;;1.13;1.13;;;;;17.10;95263.00;;;;5085803;28;20635;-57
2023/07/24 05:53:28;;;;;;;1.20;1.20;;;;;17.10;95258.00;;;;5089128;28;20290;-58
2023/07/24 05:56:00;;;;;;;1.63;1.53;;;;;17.20;95271.00;;;;5085981;28;20658;-58
2023/07/24 05:58:27;;;;;;;2.20;1.90;;;;;17.30;95255.00;;;;5082417;28;20230;-57
2023/07/24 06:00:55;;;;;;;1.27;1.27;;;;;17.40;95263.00;;;;5089656;28;20198;-58
2023/07/24 06:03:25;;;;;;;1.37;1.27;;;;;17.50;95258.00;;;;5092368;28;20272;-57
2023/07/24 06:05:53;;;;;;;2.33;1.97;;;;;17.50;95262.00;;;;5082057;28;20195;-57
2023/07/24 06:08:21;;;;;;;1.00;1.00;;;;;17.70;95262.00;;;;5067492;28;20310;-57
2023/07/24 06:10:49;;;;;;;1.73;1.63;;;;;17.40;95261.00;;;;5071726;28;20199;-57
2023/07/24 06:13:16;;;;;;;0.80;0.80;;;;;17.50;95267.00;;;;5067562;28;20227;-57
2023/07/24 06:15:44;;;;;;;1.17;1.17;;;;;17.50;95260.00;;;;5075394;28;20195;-57
2023/07/24 06:18:11;;;;;;;1.17;1.17;;;;;17.60;95258.00;;;;5067497;28;20202;-57
2023/07/24 06:20:40;;;;;;;1.20;1.20;;;;;17.60;95248.00;;;;5070862;28;20219;-57
2023/07/24 06:23:07;;;;;;;4.00;3.73;;;;;17.70;95241.00;;;;5071318;28;20227;-57
2023/07/24 06:25:35;;;;;;;4.20;3.70;;;;;17.80;95238.00;;;;5087326;28;20194;-57
2023/07/24 06:28:02;;;;;;;1.10;1.10;;;;;18.00;95245.00;;;;5091799;28;20194;-57
2023/07/24 06:30:30;;;;;;;1.33;1.33;;;;;18.00;95235.00;;;;5091177;28;20195;-57
2023/07/24 06:32:57;;;;;;;2.13;1.87;;;;;18.00;95235.00;;;;5091564;28;20223;-57
2023/07/24 06:35:24;;;;;;;1.90;1.07;;;;;18.20;95235.00;;;;5091673;28;20214;-57
2023/07/24 06:37:53;;;;;;;1.70;1.60;;;;;18.20;95221.00;;;;5069806;28;20195;-57
2023/07/24 06:40:21;;;;;;;1.17;1.17;;;;;18.20;95197.00;;;;5071278;28;20206;-57
2023/07/24 06:42:48;;;;;;;1.63;1.53;;;;;18.40;95189.00;;;;5070758;28;20317;-57
2023/07/24 06:45:15;;;;;;;1.73;1.50;;;;;18.50;95184.00;;;;5069928;28;20294;-57
2023/07/24 06:47:43;;;;;;;1.23;1.23;;;;;18.70;95202.00;;;;5070496;28;20196;-57
2023/07/24 06:50:10;;;;;;;1.87;1.77;;;;;18.80;95181.00;;;;5071281;28;20206;-57
2023/07/24 06:52:38;;;;;;;1.40;1.40;;;;;18.90;95181.00;;;;5070656;28;20694;-57
2023/07/24 06:55:08;;;;;;;8.03;1.33;;;;;19.10;95195.00;;;;5071492;28;20281;-57
2023/07/24 06:57:35;;;;;;;1.63;1.43;;;;;19.10;95196.00;;;;5071039;28;20202;-57
2023/07/24 07:00:03;;;;;;;1.63;1.53;;;;;19.10;95208.00;;;;5072064;28;20199;-58
2023/07/24 07:02:30;;;;;;;1.47;1.37;;;;;19.00;95210.00;;;;5073040;28;20665;-57
2023/07/24 07:04:57;;;;;;;0.80;0.80;;;;;19.00;95206.00;;;;5091098;28;20242;-57
2023/07/24 07:07:25;;;;;;;1.97;1.87;;;;;19.00;95203.00;;;;5091163;28;20199;-57
2023/07/24 07:09:52;;;;;;;2.00;1.90;;;;;19.00;95214.00;;;;5091262;28;20561;-57
2023/07/24 07:12:21;;;;;;;1.50;1.40;;;;;19.00;95208.00;;;;5091150;28;20607;-57
2023/07/24 07:14:49;;;;;;;1.57;1.47;;;;;19.00;95231.00;;;;5091032;28;20550;-57
2023/07/24 07:17:16;;;;;;;1.63;1.53;;;;;19.10;95228.00;;;;5090922;28;20206;-57
2023/07/24 07:19:44;;;;;;;1.60;1.50;;;;;19.20;95225.00;;;;5090254;28;20202;-57
2023/07/24 07:22:11;;;;;;;1.43;1.33;;;;;19.20;95224.00;;;;5091082;28;20696;-57
2023/07/24 07:24:39;;;;;;;2.60;2.13;;;;;19.40;95233.00;;;;5074101;28;20549;-57
2023/07/24 07:27:06;;;;;;;1.20;1.20;;;;;19.40;95229.00;;;;5077616;28;20233;-57
2023/07/24 07:29:35;;;;;;;1.70;1.60;;;;;19.40;95235.00;;;;5090579;28;20202;-57
2023/07/24 07:32:03;;;;;;;0.90;0.90;;;;;19.50;95251.00;;;;5091188;28;20257;-57
2023/07/24 07:34:30;;;;;;;1.60;1.50;;;;;19.50;95257.00;;;;5090634;28;20654;-57
2023/07/24 07:36:57;;;;;;;2.13;1.90;;;;;19.30;95259.00;;;;5091236;28;20201;-57
2023/07/24 07:39:25;;;;;;;2.97;2.27;;;;;19.30;95269.00;;;;5072745;28;20209;-57
2023/07/24 07:41:52;;;;;;;1.80;1.70;;;;;19.40;95286.00;;;;5090646;28;20214;-57
2023/07/24 07:44:20;;;;;;;3.67;3.20;;;;;19.50;95313.00;;;;5089337;28;20673;-57
2023/07/24 07:46:48;;;;;;;4.10;1.67;;;;;19.40;95330.00;;;;5070633;28;20218;-57
2023/07/24 07:49:16;;;;;;;2.07;1.90;;;;;19.20;95354.00;;;;5070465;28;20196;-58
2023/07/24 07:51:43;;;;;;;1.10;1.10;;;;;19.30;95349.00;;;;5070711;28;20666;-56
2023/07/24 07:54:10;;;;;;;0.77;0.77;;;;;19.00;95341.00;;;;5070462;28;20198;-56
2023/07/24 07:56:38;;;;;;;1.23;1.23;;;;;18.80;95338.00;;;;5069226;28;20191;-56
2023/07/24 07:59:05;;;;;;;1.33;1.30;;;;;18.60;95331.00;;;;5070656;28;20203;-56
2023/07/24 08:01:33;;;;;;;0.77;0.77;;;;;18.60;95308.00;;;;5070532;28;20613;-56
2023/07/24 08:04:02;;;;;;;1.37;1.27;;;;;18.60;95305.00;;;;5070232;28;20222;-55
2023/07/24 08:06:29;;;;;;;1.57;1.57;;;;;18.40;95291.00;;;;5070324;28;20685;-55
2023/07/24 08:08:57;;;;;;;1.23;1.20;;;;;18.30;95283.00;;;;5070316;28;20230;-55
2023/07/24 08:11:25;;;;;;;0.73;0.73;;;;;18.40;95274.00;;;;5069069;28;20215;-55
2023/07/24 08:13:52;;;;;;;2.23;1.73;;;;;18.40;95266.00;;;;5070552;28;20611;-55
2023/07/24 08:16:20;;;;;;;1.07;1.07;;;;;18.50;95244.00;;;;5070218;28;20205;-55
2023/07/24 08:18:48;;;;;;;1.20;1.20;;;;;18.60;95226.00;;;;5070457;28;20299;-55
2023/07/24 08:21:17;;;;;;;1.67;1.20;;;;;18.70;95248.00;;;;5069950;28;20667;-55
2023/07/24 08:23:44;;;;;;;1.57;1.47;;;;;18.90;95227.00;;;;5070333;28;20215;-55
2023/07/24 08:26:12;;;;;;;1.43;1.33;;;;;18.90;95225.00;;;;5070135;28;20270;-55
2023/07/24 08:28:42;;;;;;;0.87;0.87;;;;;18.90;95207.00;;;;5070261;28;20584;-55
2023/07/24 08:31:09;;;;;;;1.23;1.13;;;;;19.10;95198.00;;;;5073377;28;20627;-56
2023/07/24 08:33:37;;;;;;;1.47;1.37;;;;;19.30;95189.00;;;;5073640;28;20237;-55
2023/07/24 08:36:06;;;;;;;1.03;1.03;;;;;19.30;95181.00;;;;5073628;28;20209;-55
2023/07/24 08:38:35;;;;;;;1.03;1.03;;;;;19.40;95190.00;;;;5073448;28;20219;-55
2023/07/24 08:41:05;;;;;;;2.03;1.40;;;;;19.30;95175.00;;;;5073350;28;20210;-55
2023/07/24 08:43:33;;;;;;;0.50;0.50;;;;;19.30;95175.00;;;;5072976;28;20562;-56
2023/07/24 08:46:02;;;;;;;1.57;1.47;;;;;19.50;95177.00;;;;5073418;28;20199;-55
2023/07/24 08:48:35;;;;;;;3.30;1.43;;;;;19.70;95182.00;;;;5073519;28;20554;-55
2023/07/24 08:51:04;;;;;;;1.37;1.37;;;;;19.60;95196.00;;;;5073300;28;20533;-55
2023/07/24 08:53:33;;;;;;;2.03;1.93;;;;;19.60;95203.00;;;;5073561;28;20205;-55
2023/07/24 08:56:04;;;;;;;0.93;0.93;;;;;19.50;95191.00;;;;5073286;28;20206;-55
2023/07/24 08:58:32;;;;;;;1.03;1.03;;;;;19.90;95179.00;;;;5068661;28;20187;-55
2023/07/24 09:01:01;;;;;;;1.53;1.43;;;;;20.00;95189.00;;;;5073038;28;20558;-55
2023/07/24 09:03:28;;;;;;;1.40;1.30;;;;;20.00;95187.00;;;;5072930;28;20199;-55
2023/07/24 09:05:56;;;;;;;0.63;0.63;;;;;20.10;95189.00;;;;5072032;28;20537;-56
2023/07/24 09:08:33;;;;;;;1.77;1.67;;;;;20.10;95194.00;;;;5072956;28;20685;-57
2023/07/24 09:11:03;;;;;;;1.13;1.13;;;;;20.10;95190.00;;;;5072839;28;20661;-57
2023/07/24 09:13:31;;;;;;;1.23;1.17;;;;;20.00;95193.00;;;;5072853;28;20278;-57
2023/07/24 09:15:59;;;;;;;0.80;0.80;;;;;20.00;95190.00;;;;5072890;28;20196;-57
2023/07/24 09:18:27;;;;;;;2.93;1.83;;;;;20.00;95191.00;;;;5072743;28;20527;-57
2023/07/24 09:20:54;;;;;;;0.90;0.90;;;;;19.70;95195.00;;;;5072977;28;20195;-57
2023/07/24 09:23:28;;;;;;;1.27;1.27;;;;;20.00;95207.00;;;;5072660;28;20598;-57
2023/07/24 09:25:56;;;;;;;1.50;1.50;;;;;19.50;95213.00;;;;5073044;28;20209;-57
2023/07/24 09:28:25;;;;;;;1.73;1.63;;;;;19.30;95194.00;;;;5054220;28;20694;-57
2023/07/24 09:30:57;;;;;;;0.50;0.50;;;;;19.40;95204.00;;;;5072827;28;20203;-57
2023/07/24 09:33:34;;;;;;;1.57;1.47;;;;;19.60;95198.00;;;;5072123;28;20207;-57
2023/07/24 09:36:02;;;;;;;1.43;1.37;;;;;19.50;95198.00;;;;5068907;28;20565;-57
2023/07/24 09:38:29;;;;;;;0.73;0.73;;;;;19.50;95211.00;;;;5072773;28;20203;-57
2023/07/24 09:40:58;;;;;;;1.20;1.20;;;;;19.60;95221.00;;;;5071772;28;20196;-57
2023/07/24 09:43:28;;;;;;;0.90;0.90;;;;;19.60;95240.00;;;;5072180;28;20223;-57
2023/07/24 09:45:57;;;;;;;0.70;0.70;;;;;19.50;95245.00;;;;5072214;28;20203;-57
2023/07/24 09:48:26;;;;;;;0.93;0.93;;;;;19.30;95251.00;;;;5072293;28;20192;-57
2023/07/24 09:50:56;;;;;;;2.83;1.90;;;;;19.20;95262.00;;;;5072062;28;20697;-57
2023/07/24 09:53:30;;;;;;;1.50;1.40;;;;;19.20;95252.00;;;;5072103;28;20203;-57
2023/07/24 09:56:00;;;;;;;1.50;1.20;;;;;19.00;95260.00;;;;5072043;28;20242;-56
2023/07/24 09:58:30;;;;;;;0.60;0.60;;;;;18.90;95266.00;;;;5071993;28;20199;-57
2023/07/24 10:00:59;;;;;;;0.63;0.63;;;;;19.00;95272.00;;;;5076741;28;20229;-57
2023/07/24 10:03:27;;;;;;;1.97;1.77;;;;;18.90;95273.00;;;;5092113;28;20281;-56
2023/07/24 10:05:55;;;;;;;1.50;1.40;;;;;18.80;95270.00;;;;5092036;28;20215;-56
2023/07/24 10:08:23;;;;;;;1.60;1.40;;;;;19.10;95273.00;;;;5092030;28;20213;-57
2023/07/24 10:10:53;;;;;;;1.40;1.30;;;;;19.00;95277.00;;;;5091981;28;20198;-56
2023/07/24 10:13:22;;;;;;;1.53;1.43;;;;;19.00;95279.00;;;;5091838;28;20195;-57
2023/07/24 10:15:51;;;;;;;1.43;1.33;;;;;19.00;95278.00;;;;5091875;28;20195;-57
2023/07/24 10:18:26;;;;;;;1.40;1.40;;;;;19.10;95280.00;;;;5091703;28;20692;-57
2023/07/24 10:21:02;;;;;;;0.70;0.70;;;;;19.20;95270.00;;;;5067320;28;20187;-57
2023/07/24 10:23:29;;;;;;;1.27;1.27;;;;;19.10;95286.00;;;;5071417;28;20194;-56
2023/07/24 10:26:02;;;;;;;0.77;0.77;;;;;19.10;95288.00;;;;5071296;28;20221;-57
2023/07/24 10:28:33;;;;;;;2.60;1.77;;;;;19.00;95274.00;;;;5071400;28;20269;-57
2023/07/24 10:31:02;;;;;;;0.80;0.80;;;;;18.80;95264.00;;;;5071065;28;20196;-56
2023/07/24 10:33:32;;;;;;;1.53;1.23;;;;;18.70;95274.00;;;;5071349;28;20267;-56
2023/07/24 10:36:09;;;;;;;1.10;1.10;;;;;18.80;95293.00;;;;5071550;28;20532;-56
2023/07/24 10:38:38;;;;;;;1.40;1.07;;;;;18.60;95312.00;;;;5066304;28;20195;-58
2023/07/24 10:41:07;;;;;;;2.07;1.30;;;;;18.50;95319.00;;;;5070487;28;20218;-58
2023/07/24 10:43:44;;;;;;;1.20;1.20;;;;;18.40;95315.00;;;;5070717;28;21406;-58
2023/07/24 10:46:13;;;;;;;1.03;1.03;;;;;18.40;95327.00;;;;5071495;28;20222;-56
2023/07/24 10:48:44;;;;;;;1.40;1.30;;;;;18.10;95306.00;;;;5052746;28;20207;-56
2023/07/24 10:51:14;;;;;;;0.83;0.83;;;;;18.20;95293.00;;;;5070184;28;20227;-56
2023/07/24 10:53:45;;;;;;;0.90;0.90;;;;;18.20;95285.00;;;;5069824;28;20320;-56
2023/07/24 10:56:13;;;;;;;1.73;1.63;;;;;18.20;95244.00;;;;5071402;28;20187;-56
2023/07/24 10:58:40;;;;;;;1.77;1.67;;;;;18.00;95234.00;;;;5070587;28;20203;-56
2023/07/24 11:01:10;;;;;;;1.40;1.30;;;;;18.10;95222.00;;;;5071165;28;20219;-56
2023/07/24 11:03:41;;;;;;;1.90;1.60;;;;;18.00;95221.00;;;;5070792;28;20195;-56
2023/07/24 11:06:14;;;;;;;1.80;1.70;;;;;17.90;95228.00;;;;5071275;28;20215;-56
2023/07/24 11:08:42;;;;;;;2.00;1.57;;;;;17.90;95227.00;;;;5066718;28;20210;-56
2023/07/24 11:11:12;;;;;;;1.87;1.77;;;;;18.10;95207.00;;;;5070818;28;20211;-56
2023/07/24 11:13:39;;;;;;;1.23;0.73;;;;;18.20;95179.00;;;;5070844;28;20192;-56
2023/07/24 11:16:10;;;;;;;1.70;1.60;;;;;18.40;95152.00;;;;5070760;28;20219;-56
2023/07/24 11:18:47;;;;;;;1.77;1.67;;;;;18.70;95122.00;;;;5076780;28;20190;-56
2023/07/24 11:21:16;;;;;;;1.20;1.20;;;;;19.00;95154.00;;;;5090884;28;20275;-56
2023/07/24 11:23:47;;;;;;;1.37;1.27;;;;;19.20;95191.00;;;;5090922;28;20201;-56
2023/07/24 11:26:16;;;;;;;0.83;0.83;;;;;19.40;95165.00;;;;5090972;28;20587;-56
2023/07/24 11:28:44;;;;;;;1.00;1.00;;;;;19.70;95135.00;;;;5090829;28;20229;-56
2023/07/24 11:31:11;;;;;;;1.67;1.57;;;;;19.80;95143.00;;;;5090499;28;20210;-56
2023/07/24 11:33:40;;;;;;;0.93;0.93;;;;;19.80;95159.00;;;;5090873;28;20191;-56
2023/07/24 11:36:10;;;;;;;1.50;1.23;;;;;18.90;95166.00;;;;5090784;28;20206;-56
2023/07/24 11:38:38;;;;;;;4.00;1.60;;;;;18.90;95145.00;;;;5090982;28;20194;-56
2023/07/24 11:41:06;;;;;;;1.80;1.50;;;;;18.90;95154.00;;;;5091066;28;20214;-56
2023/07/24 11:43:33;;;;;;;1.23;1.23;;;;;19.50;95146.00;;;;5071150;28;20229;-56
2023/07/24 11:46:01;;;;;;;0.90;0.90;;;;;20.00;95157.00;;;;5070905;28;20215;-56
2023/07/24 11:48:28;;;;;;;0.70;0.70;;;;;19.20;95171.00;;;;5070164;28;20206;-56
2023/07/24 11:50:57;;;;;;;1.00;1.00;;;;;19.40;95197.00;;;;5070734;28;20265;-56
2023/07/24 11:53:27;;;;;;;1.23;1.23;;;;;19.70;95188.00;;;;5070442;28;20206;-56
2023/07/24 11:55:59;;;;;;;0.80;0.80;;;;;19.60;95192.00;;;;5070487;28;20198;-56
2023/07/24 11:58:28;;;;;;;0.50;0.50;;;;;19.80;95178.00;;;;5066002;28;20199;-56
2023/07/24 12:00:55;;;;;;;1.60;1.50;;;;;20.00;95188.00;;;;5070309;28;20199;-56
2023/07/24 12:03:25;;;;;;;1.17;1.07;;;;;20.50;95188.00;;;;5069954;28;20219;-55
2023/07/24 12:05:53;;;;;;;1.27;1.27;;;;;20.20;95184.00;;;;5073540;28;20720;-56
2023/07/24 12:08:30;;;;;;;1.63;1.47;;;;;20.00;95209.00;;;;5074327;28;20556;-56
2023/07/24 12:10:59;;;;;;;1.50;1.40;;;;;19.50;95188.00;;;;5074104;28;20188;-56
2023/07/24 12:13:27;;;;;;;1.90;1.80;;;;;19.40;95192.00;;;;5074355;28;20223;-56
2023/07/24 12:15:54;;;;;;;1.33;1.33;;;;;19.50;95188.00;;;;5073703;28;20258;-56
2023/07/24 12:18:22;;;;;;;0.80;0.80;;;;;19.60;95190.00;;;;5074179;28;20268;-56
2023/07/24 12:20:49;;;;;;;1.17;1.17;;;;;19.30;95191.00;;;;5073492;28;20187;-56
2023/07/24 12:23:17;;;;;;;1.27;1.17;;;;;19.50;95197.00;;;;5074314;28;20201;-56